CCA4126 ZULS-ZBAA
Flight info
| Callsign | CCA4126 |
|---|---|
| Flight time | 3h 17m |
| Altitude | 35100 |
| Route | DEP10R IGDAG DCT 31N094E/K0839S1130 3220N09530E 34N098E 3530N10000E DCT LED DCT DNC W211 ZWX W219 YHD W217 VIKON W72 DUDIL W69 GUVBA GUVBA9Y |
| Aircraft | A319/M-SDE3FGHIRWY/LB1 |
Departure
| Time | 2026-05-09 10:06 |
|---|---|
| Airport | Lhasa Gonggar International Airport (ZULS) |
Arrival
| Time | 2026-05-09 13:23 |
|---|---|
| Airport | Beijing Capital International Airport (ZBAA) |
| Time | Latitude | Longitude | Altitude | Speed | Heading |
|---|---|---|---|---|---|
| 2026-05-09 09:56 | 29.29358 | 90.89504 | 11551 ft | 0 kts | 180° |
| 2026-05-09 09:58 | 29.29359 | 90.89504 | 11551 ft | 0 kts | 180° |
| 2026-05-09 10:01 | 29.29361 | 90.89504 | 11561 ft | 2 kts | 180° |
| 2026-05-09 10:02 | 29.29377 | 90.89504 | 11548 ft | 2 kts | 180° |
| 2026-05-09 10:02 | 29.29394 | 90.89505 | 11544 ft | 2 kts | 180° |
| 2026-05-09 10:02 | 29.29410 | 90.89505 | 11549 ft | 2 kts | 181° |
| 2026-05-09 10:02 | 29.29426 | 90.89505 | 11544 ft | 2 kts | 181° |
| 2026-05-09 10:03 | 29.29442 | 90.89507 | 11553 ft | 2 kts | 217° |
| 2026-05-09 10:03 | 29.29449 | 90.89516 | 11546 ft | 0 kts | 268° |
| 2026-05-09 10:03 | 29.29448 | 90.89484 | 11553 ft | 8 kts | 268° |
| 2026-05-09 10:04 | 29.29446 | 90.89389 | 11564 ft | 16 kts | 268° |
| 2026-05-09 10:04 | 29.29447 | 90.89247 | 11565 ft | 16 kts | 273° |
| 2026-05-09 10:04 | 29.29524 | 90.89198 | 11559 ft | 14 kts | 357° |
| 2026-05-09 10:04 | 29.29622 | 90.89195 | 11561 ft | 14 kts | 359° |
| 2026-05-09 10:05 | 29.29722 | 90.89195 | 11555 ft | 15 kts | 360° |
| 2026-05-09 10:05 | 29.29777 | 90.89270 | 11561 ft | 15 kts | 88° |
| 2026-05-09 10:05 | 29.29780 | 90.89400 | 11556 ft | 22 kts | 89° |
| 2026-05-09 10:05 | 29.29787 | 90.89821 | 11562 ft | 84 kts | 89° |
| 2026-05-09 10:06 | 29.29800 | 90.90705 | 11560 ft | 136 kts | 89° |
| 2026-05-09 10:06 | 29.29819 | 90.91958 | 11532 ft | 181 kts | 89° |
| 2026-05-09 10:06 | 29.29838 | 90.93533 | 11711 ft | 203 kts | 85° |
| 2026-05-09 10:06 | 29.29848 | 90.95152 | 12436 ft | 203 kts | 84° |
| 2026-05-09 10:07 | 29.29872 | 90.96776 | 13049 ft | 205 kts | 84° |
| 2026-05-09 10:07 | 29.29904 | 90.98466 | 13195 ft | 219 kts | 85° |
| 2026-05-09 10:07 | 29.30005 | 91.00242 | 13305 ft | 232 kts | 77° |
| 2026-05-09 10:07 | 29.30419 | 91.02088 | 13404 ft | 246 kts | 65° |
| 2026-05-09 10:08 | 29.31166 | 91.03929 | 13489 ft | 265 kts | 60° |
| 2026-05-09 10:08 | 29.31771 | 91.06003 | 13763 ft | 282 kts | 77° |
| 2026-05-09 10:08 | 29.31907 | 91.08275 | 14301 ft | 290 kts | 92° |
| 2026-05-09 10:08 | 29.31515 | 91.10569 | 14905 ft | 297 kts | 105° |
| 2026-05-09 10:09 | 29.31128 | 91.12106 | 15107 ft | 310 kts | 103° |
| 2026-05-09 10:09 | 29.30504 | 91.15456 | 15565 ft | 329 kts | 98° |
| 2026-05-09 10:09 | 29.30220 | 91.18042 | 16156 ft | 333 kts | 94° |
| 2026-05-09 10:09 | 29.30034 | 91.20706 | 16776 ft | 337 kts | 94° |
| 2026-05-09 10:10 | 29.29841 | 91.23395 | 17423 ft | 340 kts | 94° |
| 2026-05-09 10:10 | 29.29639 | 91.26110 | 18037 ft | 344 kts | 95° |
| 2026-05-09 10:10 | 29.29502 | 91.27925 | 18407 ft | 346 kts | 95° |
| 2026-05-09 10:10 | 29.29222 | 91.31621 | 19166 ft | 349 kts | 95° |
| 2026-05-09 10:11 | 29.29083 | 91.33466 | 19539 ft | 351 kts | 95° |
| 2026-05-09 10:11 | 29.28876 | 91.36268 | 20090 ft | 355 kts | 95° |
| 2026-05-09 10:11 | 29.28667 | 91.39095 | 20657 ft | 357 kts | 95° |
| 2026-05-09 10:11 | 29.28456 | 91.41934 | 21225 ft | 359 kts | 95° |
| 2026-05-09 10:12 | 29.28241 | 91.44797 | 21771 ft | 363 kts | 95° |
| 2026-05-09 10:12 | 29.28024 | 91.47690 | 22338 ft | 365 kts | 95° |
| 2026-05-09 10:12 | 29.27806 | 91.50601 | 22903 ft | 368 kts | 96° |
| 2026-05-09 10:12 | 29.27580 | 91.53535 | 23417 ft | 371 kts | 96° |
| 2026-05-09 10:13 | 29.27335 | 91.56488 | 23894 ft | 374 kts | 97° |
| 2026-05-09 10:13 | 29.27081 | 91.59433 | 24354 ft | 377 kts | 97° |
| 2026-05-09 10:13 | 29.26819 | 91.62443 | 24808 ft | 380 kts | 97° |
| 2026-05-09 10:13 | 29.26554 | 91.65470 | 25280 ft | 382 kts | 97° |
| 2026-05-09 10:14 | 29.26288 | 91.68527 | 25730 ft | 385 kts | 97° |
| 2026-05-09 10:14 | 29.26021 | 91.71596 | 26175 ft | 389 kts | 97° |
| 2026-05-09 10:14 | 29.25754 | 91.74657 | 26642 ft | 391 kts | 97° |
| 2026-05-09 10:14 | 29.25519 | 91.77775 | 27036 ft | 397 kts | 92° |
| 2026-05-09 10:15 | 29.25697 | 91.80981 | 27156 ft | 410 kts | 81° |
| 2026-05-09 10:15 | 29.26397 | 91.84205 | 27294 ft | 422 kts | 71° |
| 2026-05-09 10:15 | 29.27571 | 91.87286 | 27422 ft | 432 kts | 61° |
| 2026-05-09 10:15 | 29.29243 | 91.90207 | 27548 ft | 442 kts | 51° |
| 2026-05-09 10:16 | 29.31385 | 91.92780 | 27690 ft | 451 kts | 39° |
| 2026-05-09 10:16 | 29.33959 | 91.94893 | 27817 ft | 459 kts | 31° |
| 2026-05-09 10:16 | 29.36660 | 91.96818 | 27975 ft | 467 kts | 31° |
| 2026-05-09 10:16 | 29.39443 | 91.98794 | 28164 ft | 473 kts | 31° |
| 2026-05-09 10:17 | 29.42244 | 92.00789 | 28454 ft | 476 kts | 31° |
| 2026-05-09 10:17 | 29.45065 | 92.02808 | 28761 ft | 479 kts | 31° |
| 2026-05-09 10:17 | 29.47896 | 92.04840 | 29122 ft | 481 kts | 31° |
| 2026-05-09 10:17 | 29.50743 | 92.06886 | 29441 ft | 483 kts | 31° |
| 2026-05-09 10:18 | 29.53602 | 92.08941 | 29798 ft | 485 kts | 31° |
| 2026-05-09 10:18 | 29.56460 | 92.10996 | 30272 ft | 482 kts | 31° |
| 2026-05-09 10:18 | 29.59304 | 92.13046 | 30699 ft | 481 kts | 31° |
| 2026-05-09 10:18 | 29.62107 | 92.15069 | 31098 ft | 481 kts | 31° |
| 2026-05-09 10:19 | 29.64940 | 92.17114 | 31462 ft | 481 kts | 31° |
| 2026-05-09 10:19 | 29.67773 | 92.19157 | 31804 ft | 481 kts | 31° |
| 2026-05-09 10:19 | 29.70645 | 92.21225 | 32180 ft | 481 kts | 31° |
| 2026-05-09 10:19 | 29.73445 | 92.23241 | 32535 ft | 481 kts | 31° |
| 2026-05-09 10:20 | 29.76290 | 92.25290 | 32911 ft | 481 kts | 30° |
| 2026-05-09 10:20 | 29.79124 | 92.27335 | 33279 ft | 480 kts | 30° |
| 2026-05-09 10:20 | 29.81950 | 92.29381 | 33643 ft | 480 kts | 31° |
| 2026-05-09 10:20 | 29.84777 | 92.31429 | 34071 ft | 478 kts | 31° |
| 2026-05-09 10:21 | 29.87594 | 92.33471 | 34408 ft | 478 kts | 31° |
| 2026-05-09 10:21 | 29.90412 | 92.35512 | 34665 ft | 479 kts | 31° |
| 2026-05-09 10:21 | 29.93250 | 92.37564 | 34921 ft | 481 kts | 31° |
| 2026-05-09 10:21 | 29.96092 | 92.39624 | 35121 ft | 484 kts | 31° |
| 2026-05-09 10:22 | 29.98785 | 92.41901 | 35182 ft | 487 kts | 40° |
| 2026-05-09 10:22 | 30.03138 | 92.47896 | 35193 ft | 490 kts | 60° |
| 2026-05-09 10:23 | 30.05785 | 92.55125 | 35205 ft | 490 kts | 67° |
| 2026-05-09 10:23 | 30.09318 | 92.61834 | 35215 ft | 490 kts | 51° |
| 2026-05-09 10:24 | 30.13525 | 92.68066 | 35198 ft | 491 kts | 51° |
| 2026-05-09 10:24 | 30.17692 | 92.74340 | 35186 ft | 492 kts | 52° |
| 2026-05-09 10:25 | 30.21840 | 92.80606 | 35196 ft | 494 kts | 51° |
| 2026-05-09 10:25 | 30.26040 | 92.86922 | 35201 ft | 495 kts | 51° |
| 2026-05-09 10:26 | 30.30236 | 92.93257 | 35205 ft | 495 kts | 51° |
| 2026-05-09 10:26 | 30.34415 | 92.99571 | 35222 ft | 496 kts | 51° |
| 2026-05-09 10:27 | 30.38616 | 93.05916 | 35253 ft | 494 kts | 51° |
| 2026-05-09 10:27 | 30.42770 | 93.12211 | 35250 ft | 495 kts | 51° |
| 2026-05-09 10:28 | 30.46953 | 93.18567 | 35240 ft | 494 kts | 51° |
| 2026-05-09 10:28 | 30.51125 | 93.24913 | 35247 ft | 494 kts | 51° |
| 2026-05-09 10:29 | 30.55270 | 93.31220 | 35253 ft | 494 kts | 51° |
| 2026-05-09 10:29 | 30.59441 | 93.37575 | 35253 ft | 494 kts | 52° |
| 2026-05-09 10:30 | 30.63594 | 93.43935 | 35257 ft | 494 kts | 52° |
| 2026-05-09 10:30 | 30.67748 | 93.50298 | 35282 ft | 492 kts | 52° |
| 2026-05-09 10:31 | 30.71855 | 93.56591 | 35290 ft | 490 kts | 52° |
| 2026-05-09 10:31 | 30.75975 | 93.62915 | 35282 ft | 489 kts | 52° |
| 2026-05-09 10:32 | 30.80071 | 93.69197 | 35279 ft | 489 kts | 52° |
| 2026-05-09 10:32 | 30.84168 | 93.75507 | 35279 ft | 488 kts | 52° |
| 2026-05-09 10:33 | 30.88253 | 93.81816 | 35273 ft | 488 kts | 52° |
| 2026-05-09 10:33 | 30.92335 | 93.88112 | 35282 ft | 488 kts | 52° |
| 2026-05-09 10:34 | 30.96429 | 93.94453 | 35271 ft | 490 kts | 52° |
| 2026-05-09 10:34 | 31.03131 | 94.03451 | 35263 ft | 489 kts | 41° |
| 2026-05-09 10:35 | 31.08058 | 94.08862 | 35261 ft | 489 kts | 41° |
| 2026-05-09 10:35 | 31.13011 | 94.14326 | 35259 ft | 490 kts | 42° |
| 2026-05-09 10:36 | 31.17943 | 94.19810 | 35241 ft | 489 kts | 42° |
| 2026-05-09 10:36 | 31.22871 | 94.25293 | 35263 ft | 488 kts | 42° |
| 2026-05-09 10:37 | 31.27789 | 94.30755 | 35257 ft | 487 kts | 42° |
| 2026-05-09 10:37 | 31.32680 | 94.36181 | 35262 ft | 487 kts | 42° |
| 2026-05-09 10:38 | 31.37594 | 94.41652 | 35257 ft | 487 kts | 42° |
| 2026-05-09 10:38 | 31.42500 | 94.47132 | 35246 ft | 486 kts | 42° |
| 2026-05-09 10:39 | 31.47377 | 94.52574 | 35246 ft | 487 kts | 42° |
| 2026-05-09 10:39 | 31.52295 | 94.58064 | 35221 ft | 489 kts | 42° |
| 2026-05-09 10:40 | 31.57214 | 94.63584 | 35239 ft | 489 kts | 42° |
| 2026-05-09 10:40 | 31.62127 | 94.69109 | 35250 ft | 489 kts | 42° |
| 2026-05-09 10:41 | 31.67038 | 94.74629 | 35250 ft | 488 kts | 42° |
| 2026-05-09 10:41 | 31.71912 | 94.80117 | 35273 ft | 488 kts | 42° |
| 2026-05-09 10:42 | 31.76825 | 94.85646 | 35260 ft | 488 kts | 42° |
| 2026-05-09 10:42 | 31.81727 | 94.91185 | 35259 ft | 488 kts | 43° |
| 2026-05-09 10:43 | 31.86596 | 94.96692 | 35243 ft | 488 kts | 42° |
| 2026-05-09 10:43 | 31.91500 | 95.02238 | 35262 ft | 488 kts | 42° |
| 2026-05-09 10:44 | 31.96398 | 95.07799 | 35261 ft | 488 kts | 43° |
| 2026-05-09 10:44 | 32.01257 | 95.13327 | 35278 ft | 488 kts | 42° |
| 2026-05-09 10:46 | 32.13481 | 95.27251 | 35268 ft | 488 kts | 42° |
| 2026-05-09 10:46 | 32.18353 | 95.32810 | 35265 ft | 489 kts | 43° |
| 2026-05-09 10:47 | 32.23247 | 95.38405 | 35260 ft | 489 kts | 43° |
| 2026-05-09 10:47 | 32.28109 | 95.43988 | 35268 ft | 489 kts | 42° |
| 2026-05-09 10:48 | 32.32999 | 95.49626 | 35237 ft | 491 kts | 45° |
| 2026-05-09 10:48 | 32.37345 | 95.55824 | 35238 ft | 492 kts | 50° |
| 2026-05-09 10:49 | 32.41673 | 95.62135 | 35230 ft | 492 kts | 49° |
| 2026-05-09 10:49 | 32.46007 | 95.68431 | 35225 ft | 492 kts | 49° |
| 2026-05-09 10:50 | 32.50307 | 95.74681 | 35237 ft | 492 kts | 49° |
| 2026-05-09 10:50 | 32.54621 | 95.80982 | 35230 ft | 492 kts | 50° |
| 2026-05-09 10:51 | 32.58930 | 95.87301 | 35229 ft | 492 kts | 50° |
| 2026-05-09 10:51 | 32.63241 | 95.93613 | 35231 ft | 492 kts | 50° |
| 2026-05-09 10:52 | 32.67541 | 95.99933 | 35227 ft | 492 kts | 50° |
| 2026-05-09 10:52 | 32.71812 | 96.06229 | 35231 ft | 492 kts | 50° |
| 2026-05-09 10:53 | 32.76120 | 96.12587 | 35230 ft | 493 kts | 50° |
| 2026-05-09 10:53 | 32.80414 | 96.18902 | 35240 ft | 493 kts | 50° |
| 2026-05-09 10:54 | 32.84716 | 96.25266 | 35230 ft | 493 kts | 50° |
| 2026-05-09 10:54 | 32.88990 | 96.31608 | 35229 ft | 493 kts | 50° |
| 2026-05-09 10:55 | 32.93291 | 96.37990 | 35238 ft | 493 kts | 50° |
| 2026-05-09 10:55 | 32.97548 | 96.44332 | 35239 ft | 493 kts | 50° |
| 2026-05-09 10:56 | 33.01848 | 96.50725 | 35261 ft | 492 kts | 50° |
| 2026-05-09 10:56 | 33.06126 | 96.57104 | 35265 ft | 491 kts | 50° |
| 2026-05-09 10:57 | 33.10371 | 96.63449 | 35273 ft | 490 kts | 50° |
| 2026-05-09 10:57 | 33.14630 | 96.69815 | 35262 ft | 490 kts | 50° |
| 2026-05-09 10:58 | 33.18859 | 96.76148 | 35276 ft | 490 kts | 50° |
| 2026-05-09 10:58 | 33.23107 | 96.82525 | 35272 ft | 490 kts | 50° |
| 2026-05-09 10:59 | 33.27351 | 96.88919 | 35271 ft | 489 kts | 50° |
| 2026-05-09 10:59 | 33.31550 | 96.95250 | 35290 ft | 489 kts | 50° |
| 2026-05-09 11:00 | 33.35776 | 97.01627 | 35576 ft | 489 kts | 50° |
| 2026-05-09 11:00 | 33.37889 | 97.04818 | 35883 ft | 489 kts | 50° |
| 2026-05-09 11:00 | 33.40004 | 97.08015 | 36191 ft | 489 kts | 50° |
| 2026-05-09 11:00 | 33.42125 | 97.11225 | 36470 ft | 490 kts | 50° |
| 2026-05-09 11:01 | 33.43529 | 97.13351 | 36666 ft | 490 kts | 50° |
| 2026-05-09 11:01 | 33.46331 | 97.17606 | 36971 ft | 492 kts | 50° |
| 2026-05-09 11:01 | 33.47766 | 97.19789 | 37131 ft | 493 kts | 50° |
| 2026-05-09 11:01 | 33.49894 | 97.23027 | 37309 ft | 496 kts | 50° |
| 2026-05-09 11:02 | 33.52005 | 97.26243 | 37298 ft | 497 kts | 50° |
| 2026-05-09 11:02 | 33.56298 | 97.32783 | 37303 ft | 498 kts | 50° |
| 2026-05-09 11:03 | 33.60564 | 97.39284 | 37307 ft | 498 kts | 50° |
| 2026-05-09 11:03 | 33.64836 | 97.45812 | 37304 ft | 497 kts | 50° |
| 2026-05-09 11:04 | 33.69118 | 97.52359 | 37312 ft | 497 kts | 50° |
| 2026-05-09 11:04 | 33.73356 | 97.58869 | 37313 ft | 498 kts | 50° |
| 2026-05-09 11:05 | 33.77644 | 97.65461 | 37321 ft | 499 kts | 50° |
| 2026-05-09 11:05 | 33.81904 | 97.72013 | 37329 ft | 500 kts | 50° |
| 2026-05-09 11:06 | 33.86191 | 97.78625 | 37326 ft | 500 kts | 50° |
| 2026-05-09 11:06 | 33.90477 | 97.85244 | 37346 ft | 501 kts | 50° |
| 2026-05-09 11:07 | 33.94765 | 97.91882 | 37349 ft | 501 kts | 50° |
| 2026-05-09 11:07 | 33.99019 | 97.98480 | 37356 ft | 501 kts | 50° |
| 2026-05-09 11:08 | 34.03661 | 98.04734 | 37343 ft | 499 kts | 44° |
| 2026-05-09 11:08 | 34.08391 | 98.10865 | 37345 ft | 499 kts | 44° |
| 2026-05-09 11:09 | 34.13114 | 98.17011 | 37348 ft | 499 kts | 44° |
| 2026-05-09 11:09 | 34.17840 | 98.23170 | 37336 ft | 499 kts | 45° |
| 2026-05-09 11:10 | 34.22548 | 98.29328 | 37370 ft | 499 kts | 44° |
| 2026-05-09 11:10 | 34.27234 | 98.35457 | 37328 ft | 499 kts | 44° |
| 2026-05-09 11:11 | 34.31950 | 98.41629 | 37318 ft | 499 kts | 44° |
| 2026-05-09 11:11 | 34.36646 | 98.47785 | 37313 ft | 499 kts | 44° |
| 2026-05-09 11:12 | 34.41370 | 98.53992 | 37308 ft | 500 kts | 44° |
| 2026-05-09 11:12 | 34.46059 | 98.60167 | 37331 ft | 500 kts | 44° |
| 2026-05-09 11:13 | 34.50775 | 98.66402 | 37323 ft | 499 kts | 44° |
| 2026-05-09 11:13 | 34.55442 | 98.72567 | 37317 ft | 499 kts | 44° |
| 2026-05-09 11:14 | 34.60137 | 98.78772 | 37322 ft | 498 kts | 44° |
| 2026-05-09 11:14 | 34.64828 | 98.84993 | 37338 ft | 498 kts | 44° |
| 2026-05-09 11:15 | 34.69481 | 98.91178 | 37356 ft | 497 kts | 44° |
| 2026-05-09 11:15 | 34.74122 | 98.97371 | 37375 ft | 496 kts | 44° |
| 2026-05-09 11:16 | 34.78765 | 99.03561 | 37373 ft | 494 kts | 44° |
| 2026-05-09 11:16 | 34.83404 | 99.09752 | 37390 ft | 494 kts | 44° |
| 2026-05-09 11:17 | 34.88028 | 99.15940 | 37377 ft | 493 kts | 44° |
| 2026-05-09 11:17 | 34.92644 | 99.22133 | 37384 ft | 493 kts | 44° |
| 2026-05-09 11:18 | 34.97227 | 99.28290 | 37385 ft | 494 kts | 44° |
| 2026-05-09 11:18 | 35.01854 | 99.34517 | 37376 ft | 494 kts | 44° |
| 2026-05-09 11:19 | 35.06473 | 99.40743 | 37373 ft | 494 kts | 44° |
| 2026-05-09 11:19 | 35.11091 | 99.46991 | 37373 ft | 494 kts | 44° |
| 2026-05-09 11:20 | 35.15677 | 99.53201 | 37374 ft | 495 kts | 44° |
| 2026-05-09 11:20 | 35.20310 | 99.59480 | 37340 ft | 497 kts | 44° |
| 2026-05-09 11:21 | 35.24956 | 99.65784 | 37353 ft | 498 kts | 44° |
| 2026-05-09 11:21 | 35.29586 | 99.72080 | 37331 ft | 498 kts | 44° |
| 2026-05-09 11:22 | 35.34192 | 99.78360 | 37328 ft | 498 kts | 44° |
| 2026-05-09 11:22 | 35.38825 | 99.84683 | 37303 ft | 499 kts | 44° |
| 2026-05-09 11:23 | 35.43473 | 99.91035 | 37299 ft | 499 kts | 44° |
| 2026-05-09 11:23 | 35.48107 | 99.97395 | 37290 ft | 500 kts | 44° |
| 2026-05-09 11:24 | 35.52053 | 100.04432 | 37259 ft | 505 kts | 58° |
| 2026-05-09 11:24 | 35.55524 | 100.11961 | 37258 ft | 506 kts | 58° |
| 2026-05-09 11:25 | 35.58987 | 100.19445 | 37280 ft | 507 kts | 58° |
| 2026-05-09 11:25 | 35.62467 | 100.27012 | 37261 ft | 508 kts | 58° |
| 2026-05-09 11:26 | 35.65922 | 100.34545 | 37243 ft | 508 kts | 58° |
| 2026-05-09 11:26 | 35.69392 | 100.42133 | 37241 ft | 508 kts | 58° |
| 2026-05-09 11:27 | 35.72870 | 100.49726 | 37235 ft | 509 kts | 58° |
| 2026-05-09 11:27 | 35.76327 | 100.57297 | 37234 ft | 509 kts | 58° |
| 2026-05-09 11:28 | 35.79781 | 100.64904 | 37248 ft | 509 kts | 58° |
| 2026-05-09 11:28 | 35.83237 | 100.72535 | 37248 ft | 509 kts | 58° |
| 2026-05-09 11:29 | 35.86669 | 100.80115 | 37246 ft | 509 kts | 58° |
| 2026-05-09 11:29 | 35.90121 | 100.87763 | 37253 ft | 510 kts | 58° |
| 2026-05-09 11:30 | 35.93568 | 100.95405 | 37252 ft | 509 kts | 58° |
| 2026-05-09 11:30 | 35.97018 | 101.03057 | 37265 ft | 509 kts | 58° |
| 2026-05-09 11:31 | 36.00461 | 101.10724 | 37263 ft | 509 kts | 58° |
| 2026-05-09 11:31 | 36.03857 | 101.18337 | 37264 ft | 509 kts | 58° |
| 2026-05-09 11:32 | 36.07280 | 101.26009 | 37265 ft | 509 kts | 58° |
| 2026-05-09 11:32 | 36.10699 | 101.33678 | 37283 ft | 509 kts | 58° |
| 2026-05-09 11:33 | 36.14114 | 101.41348 | 37289 ft | 508 kts | 58° |
| 2026-05-09 11:33 | 36.19207 | 101.52827 | 37320 ft | 510 kts | 58° |
| 2026-05-09 11:34 | 36.22609 | 101.60536 | 37312 ft | 510 kts | 58° |
| 2026-05-09 11:34 | 36.26003 | 101.68247 | 37325 ft | 509 kts | 58° |
| 2026-05-09 11:35 | 36.29399 | 101.75966 | 37307 ft | 510 kts | 58° |
| 2026-05-09 11:35 | 36.32783 | 101.83670 | 37297 ft | 510 kts | 58° |
| 2026-05-09 11:36 | 36.36180 | 101.91417 | 37296 ft | 510 kts | 58° |
| 2026-05-09 11:36 | 36.39551 | 101.99135 | 37324 ft | 510 kts | 58° |
| 2026-05-09 11:37 | 36.42944 | 102.06915 | 37338 ft | 510 kts | 58° |
| 2026-05-09 11:37 | 36.46306 | 102.14649 | 37320 ft | 511 kts | 58° |
| 2026-05-09 11:38 | 36.49676 | 102.22417 | 37329 ft | 511 kts | 58° |
| 2026-05-09 11:38 | 36.53041 | 102.30215 | 37319 ft | 511 kts | 58° |
| 2026-05-09 11:39 | 36.56396 | 102.37983 | 37330 ft | 512 kts | 58° |
| 2026-05-09 11:40 | 36.60235 | 102.50393 | 37355 ft | 518 kts | 81° |
| 2026-05-09 11:40 | 36.60389 | 102.59292 | 37348 ft | 517 kts | 95° |
| 2026-05-09 11:41 | 36.59871 | 102.68228 | 37331 ft | 517 kts | 95° |
| 2026-05-09 11:41 | 36.59362 | 102.77116 | 37329 ft | 517 kts | 95° |
| 2026-05-09 11:42 | 36.58831 | 102.86061 | 37310 ft | 518 kts | 95° |
| 2026-05-09 11:42 | 36.58290 | 102.94993 | 37288 ft | 518 kts | 95° |
| 2026-05-09 11:43 | 36.57740 | 103.03881 | 37293 ft | 518 kts | 95° |
| 2026-05-09 11:43 | 36.57189 | 103.12827 | 37285 ft | 518 kts | 95° |
| 2026-05-09 11:44 | 36.56626 | 103.21790 | 37268 ft | 519 kts | 95° |
| 2026-05-09 11:44 | 36.56057 | 103.30771 | 37267 ft | 520 kts | 95° |
| 2026-05-09 11:45 | 36.55483 | 103.39676 | 37256 ft | 520 kts | 95° |
| 2026-05-09 11:45 | 36.54906 | 103.48654 | 37260 ft | 521 kts | 95° |
| 2026-05-09 11:46 | 36.55120 | 103.57643 | 37269 ft | 518 kts | 76° |
| 2026-05-09 11:46 | 36.57411 | 103.66023 | 37261 ft | 508 kts | 57° |
| 2026-05-09 11:47 | 36.61358 | 103.73125 | 37257 ft | 498 kts | 44° |
| 2026-05-09 11:47 | 36.65748 | 103.79852 | 37236 ft | 499 kts | 45° |
| 2026-05-09 11:48 | 36.70101 | 103.86545 | 37253 ft | 499 kts | 45° |
| 2026-05-09 11:48 | 36.74465 | 103.93272 | 37246 ft | 498 kts | 45° |
| 2026-05-09 11:49 | 36.78080 | 103.98848 | 37243 ft | 497 kts | 45° |
| 2026-05-09 11:49 | 36.83130 | 104.06668 | 37234 ft | 496 kts | 45° |
| 2026-05-09 11:50 | 36.86781 | 104.12259 | 37204 ft | 495 kts | 43° |
| 2026-05-09 11:50 | 36.91301 | 104.18644 | 37215 ft | 492 kts | 41° |
| 2026-05-09 11:51 | 36.96675 | 104.25990 | 37184 ft | 491 kts | 41° |
| 2026-05-09 11:51 | 37.00474 | 104.31286 | 37177 ft | 491 kts | 42° |
| 2026-05-09 11:52 | 37.04999 | 104.37707 | 37156 ft | 491 kts | 42° |
| 2026-05-09 11:52 | 37.09493 | 104.44121 | 37173 ft | 491 kts | 43° |
| 2026-05-09 11:53 | 37.14012 | 104.50556 | 37147 ft | 489 kts | 43° |
| 2026-05-09 11:53 | 37.18488 | 104.56922 | 37144 ft | 489 kts | 43° |
| 2026-05-09 11:54 | 37.22988 | 104.63336 | 37133 ft | 489 kts | 43° |
| 2026-05-09 11:54 | 37.27483 | 104.69760 | 37141 ft | 488 kts | 43° |
| 2026-05-09 11:55 | 37.31958 | 104.76187 | 37121 ft | 488 kts | 43° |
| 2026-05-09 11:56 | 37.45379 | 104.95335 | 37083 ft | 487 kts | 42° |
| 2026-05-09 11:57 | 37.49866 | 105.01751 | 37102 ft | 487 kts | 43° |
| 2026-05-09 11:57 | 37.54310 | 105.08130 | 37071 ft | 486 kts | 43° |
| 2026-05-09 11:58 | 37.58738 | 105.14596 | 37056 ft | 486 kts | 45° |
| 2026-05-09 11:58 | 37.62928 | 105.21350 | 37053 ft | 488 kts | 47° |
| 2026-05-09 11:59 | 37.66947 | 105.28183 | 37052 ft | 488 kts | 48° |
| 2026-05-09 11:59 | 37.71017 | 105.35025 | 37049 ft | 486 kts | 47° |
| 2026-05-09 12:00 | 37.75135 | 105.41795 | 37034 ft | 485 kts | 46° |
| 2026-05-09 12:00 | 37.79260 | 105.48559 | 37033 ft | 485 kts | 47° |
| 2026-05-09 12:01 | 37.83334 | 105.55296 | 37017 ft | 484 kts | 47° |
| 2026-05-09 12:01 | 37.87434 | 105.62080 | 37013 ft | 484 kts | 47° |
| 2026-05-09 12:02 | 37.91540 | 105.68856 | 37002 ft | 484 kts | 46° |
| 2026-05-09 12:02 | 37.95612 | 105.75581 | 37003 ft | 483 kts | 47° |
| 2026-05-09 12:03 | 37.99697 | 105.82370 | 36982 ft | 483 kts | 47° |
| 2026-05-09 12:03 | 38.03765 | 105.89144 | 36993 ft | 482 kts | 47° |
| 2026-05-09 12:04 | 38.07811 | 105.95878 | 36971 ft | 482 kts | 47° |
| 2026-05-09 12:04 | 38.11876 | 106.02659 | 36977 ft | 481 kts | 47° |
| 2026-05-09 12:05 | 38.15932 | 106.09436 | 36958 ft | 481 kts | 47° |
| 2026-05-09 12:05 | 38.19946 | 106.16177 | 36951 ft | 481 kts | 47° |
| 2026-05-09 12:06 | 38.23981 | 106.22967 | 36954 ft | 481 kts | 47° |
| 2026-05-09 12:06 | 38.28017 | 106.29758 | 36944 ft | 481 kts | 47° |
| 2026-05-09 12:07 | 38.32041 | 106.36553 | 36943 ft | 481 kts | 48° |
| 2026-05-09 12:07 | 38.35333 | 106.44052 | 36940 ft | 491 kts | 66° |
| 2026-05-09 12:08 | 38.37340 | 106.52371 | 36944 ft | 493 kts | 70° |
| 2026-05-09 12:08 | 38.39320 | 106.60709 | 36964 ft | 492 kts | 66° |
| 2026-05-09 12:09 | 38.42406 | 106.68337 | 36965 ft | 480 kts | 49° |
| 2026-05-09 12:09 | 38.46698 | 106.74789 | 36953 ft | 475 kts | 43° |
| 2026-05-09 12:10 | 38.55406 | 106.87447 | 36949 ft | 475 kts | 43° |
| 2026-05-09 12:11 | 38.59774 | 106.93801 | 36961 ft | 476 kts | 43° |
| 2026-05-09 12:11 | 38.64136 | 107.00171 | 36955 ft | 476 kts | 43° |
| 2026-05-09 12:12 | 38.68505 | 107.06562 | 36978 ft | 477 kts | 43° |
| 2026-05-09 12:12 | 38.72856 | 107.12933 | 36966 ft | 478 kts | 43° |
| 2026-05-09 12:13 | 38.77227 | 107.19358 | 36984 ft | 478 kts | 43° |
| 2026-05-09 12:13 | 38.81609 | 107.25809 | 36970 ft | 478 kts | 43° |
| 2026-05-09 12:14 | 38.85959 | 107.32213 | 36959 ft | 478 kts | 43° |
| 2026-05-09 12:14 | 38.90330 | 107.38666 | 36958 ft | 479 kts | 43° |
| 2026-05-09 12:15 | 38.94693 | 107.45128 | 36985 ft | 479 kts | 43° |
| 2026-05-09 12:15 | 38.99050 | 107.51594 | 36983 ft | 478 kts | 43° |
| 2026-05-09 12:16 | 39.03376 | 107.58028 | 36982 ft | 478 kts | 43° |
| 2026-05-09 12:16 | 39.07724 | 107.64501 | 36982 ft | 478 kts | 43° |
| 2026-05-09 12:17 | 39.12080 | 107.70997 | 36996 ft | 477 kts | 43° |
| 2026-05-09 12:17 | 39.16418 | 107.77496 | 36994 ft | 477 kts | 43° |
| 2026-05-09 12:18 | 39.20715 | 107.83958 | 36988 ft | 476 kts | 43° |
| 2026-05-09 12:18 | 39.25033 | 107.90450 | 36986 ft | 476 kts | 43° |
| 2026-05-09 12:19 | 39.29325 | 107.96904 | 37015 ft | 476 kts | 43° |
| 2026-05-09 12:19 | 39.33634 | 108.03396 | 37011 ft | 475 kts | 43° |
| 2026-05-09 12:20 | 39.37931 | 108.09885 | 37004 ft | 475 kts | 43° |
| 2026-05-09 12:20 | 39.42220 | 108.16387 | 36999 ft | 474 kts | 44° |
| 2026-05-09 12:21 | 39.46505 | 108.22887 | 37012 ft | 474 kts | 44° |
| 2026-05-09 12:21 | 39.50757 | 108.29356 | 37010 ft | 474 kts | 44° |
| 2026-05-09 12:22 | 39.54965 | 108.35946 | 37007 ft | 476 kts | 47° |
| 2026-05-09 12:22 | 39.58880 | 108.42927 | 37013 ft | 479 kts | 50° |
| 2026-05-09 12:23 | 39.62659 | 108.50045 | 37013 ft | 479 kts | 50° |
| 2026-05-09 12:23 | 39.66490 | 108.57138 | 37011 ft | 479 kts | 49° |
| 2026-05-09 12:24 | 39.70364 | 108.64135 | 37013 ft | 479 kts | 49° |
| 2026-05-09 12:24 | 39.74258 | 108.71161 | 37011 ft | 479 kts | 49° |
| 2026-05-09 12:25 | 39.78108 | 108.78168 | 37020 ft | 478 kts | 49° |
| 2026-05-09 12:25 | 39.81979 | 108.85247 | 37032 ft | 478 kts | 49° |
| 2026-05-09 12:26 | 39.85813 | 108.92275 | 37027 ft | 478 kts | 49° |
| 2026-05-09 12:26 | 39.89656 | 108.99336 | 37029 ft | 478 kts | 49° |
| 2026-05-09 12:27 | 39.93504 | 109.06418 | 37025 ft | 478 kts | 49° |
| 2026-05-09 12:27 | 39.97350 | 109.13506 | 37052 ft | 478 kts | 49° |
| 2026-05-09 12:28 | 40.01165 | 109.20546 | 37039 ft | 477 kts | 49° |
| 2026-05-09 12:28 | 40.04998 | 109.27639 | 37031 ft | 477 kts | 49° |
| 2026-05-09 12:29 | 40.08819 | 109.34731 | 37025 ft | 477 kts | 49° |
| 2026-05-09 12:29 | 40.12616 | 109.41790 | 37047 ft | 477 kts | 49° |
| 2026-05-09 12:30 | 40.16428 | 109.48911 | 37042 ft | 477 kts | 49° |
| 2026-05-09 12:30 | 40.22122 | 109.59565 | 37034 ft | 477 kts | 49° |
| 2026-05-09 12:31 | 40.27835 | 109.70270 | 37054 ft | 477 kts | 49° |
| 2026-05-09 12:32 | 40.31612 | 109.77362 | 37041 ft | 477 kts | 49° |
| 2026-05-09 12:32 | 40.35409 | 109.84519 | 37038 ft | 477 kts | 49° |
| 2026-05-09 12:33 | 40.39196 | 109.91668 | 37027 ft | 477 kts | 49° |
| 2026-05-09 12:33 | 40.42958 | 109.98850 | 37023 ft | 478 kts | 51° |
| 2026-05-09 12:34 | 40.46459 | 110.06241 | 37046 ft | 480 kts | 54° |
| 2026-05-09 12:34 | 40.49819 | 110.13855 | 37039 ft | 480 kts | 54° |
| 2026-05-09 12:35 | 40.53175 | 110.21403 | 37038 ft | 479 kts | 53° |
| 2026-05-09 12:35 | 40.56596 | 110.28922 | 37037 ft | 478 kts | 53° |
| 2026-05-09 12:36 | 40.60036 | 110.36434 | 37050 ft | 478 kts | 53° |
| 2026-05-09 12:36 | 40.63099 | 110.44176 | 37043 ft | 485 kts | 66° |
| 2026-05-09 12:37 | 40.64321 | 110.53003 | 37056 ft | 496 kts | 86° |
| 2026-05-09 12:37 | 40.64239 | 110.62054 | 37038 ft | 497 kts | 87° |
| 2026-05-09 12:38 | 40.64160 | 110.71160 | 37048 ft | 496 kts | 87° |
| 2026-05-09 12:38 | 40.64078 | 110.80260 | 37037 ft | 498 kts | 87° |
| 2026-05-09 12:39 | 40.63984 | 110.89378 | 37032 ft | 498 kts | 87° |
| 2026-05-09 12:39 | 40.63891 | 110.96977 | 37027 ft | 499 kts | 87° |
| 2026-05-09 12:40 | 40.63753 | 111.07636 | 37021 ft | 499 kts | 87° |
| 2026-05-09 12:40 | 40.63650 | 111.15253 | 37058 ft | 500 kts | 87° |
| 2026-05-09 12:41 | 40.63523 | 111.24417 | 37043 ft | 500 kts | 87° |
| 2026-05-09 12:41 | 40.63396 | 111.33579 | 37034 ft | 500 kts | 87° |
| 2026-05-09 12:42 | 40.63253 | 111.42671 | 37030 ft | 500 kts | 88° |
| 2026-05-09 12:42 | 40.63097 | 111.51828 | 37026 ft | 500 kts | 88° |
| 2026-05-09 12:43 | 40.62936 | 111.60995 | 37028 ft | 500 kts | 88° |
| 2026-05-09 12:43 | 40.62770 | 111.70153 | 37029 ft | 500 kts | 88° |
| 2026-05-09 12:44 | 40.62597 | 111.79260 | 37034 ft | 500 kts | 88° |
| 2026-05-09 12:44 | 40.62416 | 111.88438 | 37029 ft | 500 kts | 88° |
| 2026-05-09 12:45 | 40.62250 | 111.97546 | 37028 ft | 500 kts | 88° |
| 2026-05-09 12:45 | 40.62060 | 112.06719 | 37025 ft | 501 kts | 88° |
| 2026-05-09 12:46 | 40.61849 | 112.15892 | 37027 ft | 501 kts | 88° |
| 2026-05-09 12:46 | 40.61644 | 112.25008 | 37030 ft | 500 kts | 88° |
| 2026-05-09 12:47 | 40.61429 | 112.34166 | 37036 ft | 500 kts | 88° |
| 2026-05-09 12:47 | 40.61201 | 112.43336 | 37031 ft | 500 kts | 88° |
| 2026-05-09 12:48 | 40.60938 | 112.52417 | 37016 ft | 501 kts | 90° |
| 2026-05-09 12:48 | 40.60446 | 112.61596 | 37012 ft | 502 kts | 91° |
| 2026-05-09 12:49 | 40.59839 | 112.70741 | 37013 ft | 501 kts | 91° |
| 2026-05-09 12:49 | 40.59171 | 112.79898 | 37027 ft | 502 kts | 93° |
| 2026-05-09 12:50 | 40.58438 | 112.89034 | 37006 ft | 502 kts | 92° |
| 2026-05-09 12:50 | 40.57833 | 112.98137 | 36988 ft | 501 kts | 91° |
| 2026-05-09 12:51 | 40.57266 | 113.07279 | 36985 ft | 501 kts | 91° |
| 2026-05-09 12:52 | 40.56045 | 113.25395 | 36970 ft | 502 kts | 92° |
| 2026-05-09 12:52 | 40.55398 | 113.34557 | 36968 ft | 502 kts | 92° |
| 2026-05-09 12:53 | 40.54754 | 113.43655 | 36977 ft | 502 kts | 92° |
| 2026-05-09 12:53 | 40.54106 | 113.52818 | 36971 ft | 502 kts | 92° |
| 2026-05-09 12:54 | 40.53451 | 113.61957 | 36965 ft | 502 kts | 92° |
| 2026-05-09 12:54 | 40.52789 | 113.71094 | 36976 ft | 502 kts | 92° |
| 2026-05-09 12:55 | 40.52122 | 113.80176 | 36967 ft | 501 kts | 92° |
| 2026-05-09 12:55 | 40.51444 | 113.89314 | 36944 ft | 501 kts | 92° |
| 2026-05-09 12:56 | 40.50754 | 113.98432 | 36945 ft | 502 kts | 92° |
| 2026-05-09 12:56 | 40.50218 | 114.07506 | 36953 ft | 500 kts | 90° |
| 2026-05-09 12:57 | 40.49899 | 114.16649 | 36937 ft | 500 kts | 89° |
| 2026-05-09 12:57 | 40.49582 | 114.25782 | 36932 ft | 501 kts | 89° |
| 2026-05-09 12:58 | 40.49191 | 114.34873 | 36927 ft | 501 kts | 90° |
| 2026-05-09 12:58 | 40.48765 | 114.44013 | 36935 ft | 501 kts | 90° |
| 2026-05-09 12:59 | 40.48333 | 114.53162 | 36925 ft | 501 kts | 90° |
| 2026-05-09 12:59 | 40.47908 | 114.62305 | 36926 ft | 501 kts | 90° |
| 2026-05-09 13:00 | 40.47489 | 114.71375 | 36882 ft | 501 kts | 90° |
| 2026-05-09 13:00 | 40.47278 | 114.75966 | 36004 ft | 507 kts | 90° |
| 2026-05-09 13:00 | 40.47060 | 114.80627 | 35031 ft | 514 kts | 90° |
| 2026-05-09 13:00 | 40.46834 | 114.85330 | 34167 ft | 518 kts | 90° |
| 2026-05-09 13:01 | 40.46602 | 114.90076 | 33200 ft | 522 kts | 90° |
| 2026-05-09 13:01 | 40.46366 | 114.94859 | 32191 ft | 525 kts | 90° |
| 2026-05-09 13:01 | 40.46127 | 114.99649 | 31219 ft | 527 kts | 90° |
| 2026-05-09 13:01 | 40.45881 | 115.04471 | 30263 ft | 529 kts | 90° |
| 2026-05-09 13:02 | 40.45635 | 115.09293 | 29163 ft | 530 kts | 90° |
| 2026-05-09 13:02 | 40.45387 | 115.14075 | 28089 ft | 531 kts | 90° |
| 2026-05-09 13:02 | 40.45137 | 115.18895 | 27157 ft | 526 kts | 90° |
| 2026-05-09 13:02 | 40.44887 | 115.23684 | 26212 ft | 523 kts | 90° |
| 2026-05-09 13:03 | 40.44637 | 115.28422 | 25402 ft | 516 kts | 91° |
| 2026-05-09 13:03 | 40.44392 | 115.33103 | 24615 ft | 510 kts | 91° |
| 2026-05-09 13:03 | 40.44152 | 115.37660 | 23875 ft | 503 kts | 91° |
| 2026-05-09 13:03 | 40.43906 | 115.42212 | 23104 ft | 496 kts | 92° |
| 2026-05-09 13:04 | 40.43282 | 115.46660 | 22319 ft | 493 kts | 107° |
| 2026-05-09 13:04 | 40.41886 | 115.50716 | 21617 ft | 485 kts | 122° |
| 2026-05-09 13:04 | 40.39822 | 115.54159 | 20939 ft | 476 kts | 137° |
| 2026-05-09 13:04 | 40.37244 | 115.56801 | 20280 ft | 465 kts | 152° |
| 2026-05-09 13:05 | 40.34391 | 115.58713 | 19609 ft | 457 kts | 157° |
| 2026-05-09 13:05 | 40.31538 | 115.60508 | 18963 ft | 451 kts | 158° |
| 2026-05-09 13:05 | 40.28755 | 115.62247 | 18362 ft | 445 kts | 157° |
| 2026-05-09 13:05 | 40.25976 | 115.63983 | 17728 ft | 440 kts | 157° |
| 2026-05-09 13:06 | 40.23231 | 115.65698 | 17099 ft | 435 kts | 158° |
| 2026-05-09 13:06 | 40.20525 | 115.67390 | 16675 ft | 426 kts | 158° |
| 2026-05-09 13:06 | 40.17882 | 115.69042 | 16376 ft | 416 kts | 158° |
| 2026-05-09 13:06 | 40.15297 | 115.70659 | 16045 ft | 408 kts | 158° |
| 2026-05-09 13:07 | 40.12744 | 115.72256 | 15743 ft | 404 kts | 158° |
| 2026-05-09 13:07 | 40.10212 | 115.73840 | 15430 ft | 402 kts | 158° |
| 2026-05-09 13:07 | 40.07692 | 115.75417 | 15118 ft | 401 kts | 158° |
| 2026-05-09 13:07 | 40.05208 | 115.76969 | 14803 ft | 399 kts | 158° |
| 2026-05-09 13:08 | 40.02718 | 115.78549 | 14490 ft | 397 kts | 155° |
| 2026-05-09 13:08 | 40.00403 | 115.80539 | 14183 ft | 398 kts | 144° |
| 2026-05-09 13:08 | 39.98386 | 115.83055 | 13869 ft | 400 kts | 133° |
| 2026-05-09 13:08 | 39.96655 | 115.85839 | 13554 ft | 398 kts | 131° |
| 2026-05-09 13:09 | 39.94924 | 115.88645 | 13230 ft | 397 kts | 131° |
| 2026-05-09 13:09 | 39.93183 | 115.91449 | 12916 ft | 396 kts | 131° |
| 2026-05-09 13:09 | 39.91444 | 115.94242 | 12600 ft | 395 kts | 131° |
| 2026-05-09 13:09 | 39.89716 | 115.97016 | 12306 ft | 394 kts | 130° |
| 2026-05-09 13:10 | 39.87990 | 115.99792 | 11992 ft | 393 kts | 130° |
| 2026-05-09 13:10 | 39.86274 | 116.02552 | 11681 ft | 391 kts | 130° |
| 2026-05-09 13:10 | 39.84567 | 116.05296 | 11377 ft | 389 kts | 130° |
| 2026-05-09 13:10 | 39.82865 | 116.08030 | 11074 ft | 388 kts | 129° |
| 2026-05-09 13:11 | 39.81168 | 116.10754 | 10774 ft | 386 kts | 129° |
| 2026-05-09 13:11 | 39.79502 | 116.13426 | 10583 ft | 372 kts | 129° |
| 2026-05-09 13:11 | 39.77927 | 116.15948 | 10457 ft | 357 kts | 129° |
| 2026-05-09 13:11 | 39.76382 | 116.18415 | 10336 ft | 344 kts | 129° |
| 2026-05-09 13:12 | 39.74893 | 116.20790 | 10216 ft | 333 kts | 129° |
| 2026-05-09 13:12 | 39.73453 | 116.23085 | 10050 ft | 323 kts | 129° |
| 2026-05-09 13:12 | 39.72040 | 116.25335 | 9798 ft | 318 kts | 128° |
| 2026-05-09 13:12 | 39.70652 | 116.27544 | 9628 ft | 313 kts | 129° |
| 2026-05-09 13:13 | 39.69276 | 116.29738 | 9427 ft | 313 kts | 129° |
| 2026-05-09 13:13 | 39.67905 | 116.31925 | 9202 ft | 311 kts | 129° |
| 2026-05-09 13:13 | 39.66568 | 116.34087 | 8997 ft | 310 kts | 126° |
| 2026-05-09 13:13 | 39.65549 | 116.36543 | 8890 ft | 309 kts | 109° |
| 2026-05-09 13:14 | 39.65057 | 116.39242 | 8641 ft | 307 kts | 93° |
| 2026-05-09 13:14 | 39.65119 | 116.41983 | 8313 ft | 302 kts | 80° |
| 2026-05-09 13:16 | 39.67261 | 116.60637 | 6127 ft | 295 kts | 54° |
| 2026-05-09 13:16 | 39.68701 | 116.62437 | 5780 ft | 286 kts | 25° |
| 2026-05-09 13:16 | 39.70595 | 116.63173 | 5043 ft | 286 kts | 357° |
| 2026-05-09 13:16 | 39.72541 | 116.62966 | 4811 ft | 274 kts | 346° |
| 2026-05-09 13:17 | 39.74387 | 116.62611 | 4689 ft | 261 kts | 347° |
| 2026-05-09 13:17 | 39.76134 | 116.62321 | 4572 ft | 250 kts | 348° |
| 2026-05-09 13:17 | 39.77827 | 116.62059 | 4454 ft | 240 kts | 348° |
| 2026-05-09 13:17 | 39.79455 | 116.61806 | 4335 ft | 231 kts | 348° |
| 2026-05-09 13:18 | 39.81039 | 116.61557 | 4230 ft | 228 kts | 348° |
| 2026-05-09 13:18 | 39.82614 | 116.61309 | 4126 ft | 227 kts | 348° |
| 2026-05-09 13:18 | 39.84176 | 116.61064 | 3950 ft | 226 kts | 349° |
| 2026-05-09 13:18 | 39.85735 | 116.60819 | 3775 ft | 225 kts | 349° |
| 2026-05-09 13:19 | 39.87293 | 116.60575 | 3595 ft | 225 kts | 349° |
| 2026-05-09 13:19 | 39.88846 | 116.60331 | 3416 ft | 224 kts | 349° |
| 2026-05-09 13:19 | 39.90376 | 116.60091 | 3275 ft | 222 kts | 349° |
| 2026-05-09 13:19 | 39.91888 | 116.59854 | 3113 ft | 218 kts | 350° |
| 2026-05-09 13:20 | 39.93393 | 116.59617 | 2852 ft | 218 kts | 350° |
| 2026-05-09 13:20 | 39.94904 | 116.59379 | 2572 ft | 219 kts | 351° |
| 2026-05-09 13:20 | 39.96403 | 116.59144 | 2287 ft | 213 kts | 352° |
| 2026-05-09 13:20 | 39.97832 | 116.58919 | 2005 ft | 201 kts | 353° |
| 2026-05-09 13:21 | 39.99182 | 116.58706 | 1749 ft | 190 kts | 354° |
| 2026-05-09 13:21 | 40.00452 | 116.58504 | 1500 ft | 178 kts | 354° |
| 2026-05-09 13:21 | 40.01650 | 116.58318 | 1281 ft | 169 kts | 354° |
| 2026-05-09 13:21 | 40.02794 | 116.58144 | 1040 ft | 162 kts | 354° |
| 2026-05-09 13:22 | 40.03887 | 116.57970 | 818 ft | 155 kts | 354° |
| 2026-05-09 13:22 | 40.04934 | 116.57805 | 627 ft | 148 kts | 354° |
| 2026-05-09 13:22 | 40.05930 | 116.57644 | 427 ft | 142 kts | 353° |
| 2026-05-09 13:23 | 40.09128 | 116.57145 | 123 ft | 57 kts | 353° |
| 2026-05-09 13:23 | 40.09430 | 116.57102 | 123 ft | 28 kts | 359° |
| 2026-05-09 13:24 | 40.09620 | 116.57159 | 121 ft | 26 kts | 22° |
| 2026-05-09 13:24 | 40.09693 | 116.57244 | 122 ft | 14 kts | 98° |
| 2026-05-09 13:24 | 40.09605 | 116.57293 | 122 ft | 16 kts | 172° |
| 2026-05-09 13:24 | 40.09490 | 116.57311 | 124 ft | 17 kts | 173° |
| 2026-05-09 13:25 | 40.09365 | 116.57331 | 122 ft | 19 kts | 173° |
| 2026-05-09 13:25 | 40.09230 | 116.57353 | 125 ft | 21 kts | 173° |
| 2026-05-09 13:25 | 40.08925 | 116.57399 | 125 ft | 23 kts | 173° |
| 2026-05-09 13:26 | 40.08760 | 116.57425 | 123 ft | 24 kts | 173° |
| 2026-05-09 13:26 | 40.08586 | 116.57452 | 123 ft | 26 kts | 173° |
| 2026-05-09 13:26 | 40.08438 | 116.57475 | 122 ft | 16 kts | 173° |
| 2026-05-09 13:26 | 40.08318 | 116.57495 | 125 ft | 18 kts | 165° |
| 2026-05-09 13:27 | 40.08304 | 116.57627 | 125 ft | 16 kts | 83° |
| 2026-05-09 13:27 | 40.08319 | 116.57781 | 124 ft | 18 kts | 83° |
| 2026-05-09 13:27 | 40.08334 | 116.57949 | 125 ft | 19 kts | 84° |
| 2026-05-09 13:27 | 40.08349 | 116.58130 | 123 ft | 21 kts | 82° |
| 2026-05-09 13:28 | 40.08368 | 116.58322 | 121 ft | 22 kts | 84° |
| 2026-05-09 13:28 | 40.08377 | 116.58469 | 125 ft | 11 kts | 103° |
| 2026-05-09 13:28 | 40.08313 | 116.58519 | 122 ft | 12 kts | 136° |
| 2026-05-09 13:28 | 40.08315 | 116.58628 | 124 ft | 13 kts | 83° |
| 2026-05-09 13:29 | 40.08324 | 116.58732 | 121 ft | 7 kts | 92° |
| 2026-05-09 13:29 | 40.08281 | 116.58756 | 124 ft | 8 kts | 174° |
| 2026-05-09 13:29 | 40.08247 | 116.58762 | 123 ft | 2 kts | 171° |
| 2026-05-09 13:29 | 40.08242 | 116.58763 | 121 ft | 0 kts | 172° |